Aviation Digital Data Service (ADDS)

Output produced by METARs form (1611 UTC 23 September 2020)
found at http://aviationweather.gov/metar/data/
 
KHKS 231504Z 2315/2412 10008KT P6SM -SHRA SCT020 BKN025 OVC100 
     FM240100 10006KT 6SM BR VCSH OVC012 
     FM240700 12011KT 6SM BR VCSH OVC006